Time;durP1;ratioP1;P1;durP2;ratioP2;P2;SDS_P1;SDS_P2;PMS_P1;PMS_P2;Temp;Humidity;BMP_temperature;BMP_pressure;BME280_temperature;BME280_humidity;BME280_pressure;Samples;Min_cycle;Max_cycle;Signal;HPM_P1;HPM_P2
2022/08/17 00:01:25;;;;;;;52.95;36.38;;;;;;;23.73;63.05;101100.13;6141318;23;20005;-53
2022/08/17 00:03:52;;;;;;;55.38;38.03;;;;;;;23.64;63.62;101097.84;6157114;23;20009;-54
2022/08/17 00:06:24;;;;;;;50.42;34.65;;;;;;;23.67;63.56;101097.72;6171196;23;20923;-53
2022/08/17 00:08:56;;;;;;;49.60;35.30;;;;;;;23.68;63.52;101088.81;6122404;23;20375;-55
2022/08/17 00:11:35;;;;;;;50.70;34.92;;;;;;;23.71;63.64;101090.50;6163649;23;20082;-53
2022/08/17 00:14:07;;;;;;;56.58;38.15;;;;;;;23.61;64.18;101089.94;6164684;23;20004;-55
2022/08/17 00:16:46;;;;;;;53.90;36.70;;;;;;;23.64;63.74;101086.31;6157359;23;20444;-53
2022/08/17 00:19:13;;;;;;;55.40;37.47;;;;;;;23.68;63.70;101086.13;6162321;23;20098;-54
2022/08/17 00:21:42;;;;;;;51.67;35.80;;;;;;;23.74;63.88;101079.72;6163656;23;20025;-53
2022/08/17 00:24:08;;;;;;;52.22;35.35;;;;;;;23.66;64.08;101076.50;6175242;23;20144;-54
2022/08/17 00:26:37;;;;;;;52.67;36.53;;;;;;;23.66;64.22;101079.16;6133627;23;20044;-54
2022/08/17 00:29:03;;;;;;;54.78;38.05;;;;;;;23.68;64.56;101077.28;6143568;23;20322;-55
2022/08/17 00:31:28;;;;;;;52.38;37.05;;;;;;;23.72;64.18;101077.13;6167728;23;20008;-54
2022/08/17 00:33:53;;;;;;;54.70;37.92;;;;;;;23.76;63.85;101080.53;6130807;23;20040;-54
2022/08/17 00:36:20;;;;;;;61.10;40.53;;;;;;;23.66;64.20;101076.50;6142504;23;20099;-54
2022/08/17 00:38:46;;;;;;;56.13;39.20;;;;;;;23.55;64.54;101071.53;6156415;23;20512;-52
2022/08/17 00:41:18;;;;;;;59.53;38.65;;;;;;;23.59;64.60;101069.66;6167244;23;20071;-53
2022/08/17 00:44:00;;;;;;;61.13;39.50;;;;;;;23.39;65.72;101079.19;6142990;23;20348;-54
2022/08/17 00:46:33;;;;;;;57.42;39.90;;;;;;;23.34;65.62;101070.53;6159508;23;20181;-54
2022/08/17 00:48:59;;;;;;;56.72;37.92;;;;;;;23.34;65.63;101073.19;6172105;23;20070;-54
2022/08/17 00:51:48;;;;;;;59.30;37.78;;;;;;;23.41;65.59;101071.16;6164125;23;20016;-52
2022/08/17 00:54:29;;;;;;;59.50;39.45;;;;;;;23.42;65.32;101070.25;6172974;23;20008;-52
2022/08/17 00:57:01;;;;;;;53.30;36.78;;;;;;;23.33;65.57;101075.88;6132606;23;20020;-53
2022/08/17 00:59:32;;;;;;;54.40;35.80;;;;;;;23.55;64.92;101070.66;6137841;23;20012;-50
2022/08/17 01:01:58;;;;;;;52.80;37.78;;;;;;;23.54;65.23;101066.31;6146165;23;20015;-54
2022/08/17 01:04:27;;;;;;;53.85;35.88;;;;;;;23.24;67.42;101054.91;6151623;23;20046;-52
2022/08/17 01:06:54;;;;;;;64.57;39.83;;;;;;;23.18;68.45;101060.47;6128310;23;20417;-49
2022/08/17 01:09:20;;;;;;;64.00;38.88;;;;;;;23.21;69.75;101063.91;6163899;23;20020;-47
2022/08/17 01:11:51;;;;;;;60.55;38.95;;;;;;;22.87;70.66;101061.53;6171969;23;20013;-48
2022/08/17 01:14:25;;;;;;;64.45;39.97;;;;;;;22.92;71.15;101054.28;6141893;23;20008;-48
2022/08/17 01:17:07;;;;;;;66.70;40.13;;;;;;;22.78;71.91;101058.34;6153369;23;20431;-48
2022/08/17 01:19:40;;;;;;;62.17;37.88;;;;;;;22.91;71.63;101064.97;6143283;23;20103;-48
2022/08/17 01:22:19;;;;;;;61.05;38.58;;;;;;;22.62;72.24;101066.81;6159809;23;20456;-48
2022/08/17 01:24:58;;;;;;;68.00;40.28;;;;;;;22.58;72.53;101069.59;6098024;23;20366;-47
2022/08/17 01:27:35;;;;;;;64.55;38.22;;;;;;;22.68;72.93;101071.03;6170964;23;20693;-48
2022/08/17 01:30:08;;;;;;;66.35;39.33;;;;;;;22.74;72.65;101073.53;6159629;23;20578;-48
2022/08/17 01:32:34;;;;;;;64.78;38.72;;;;;;;22.49;73.22;101084.06;6159162;23;20440;-48
2022/08/17 01:34:59;;;;;;;63.08;37.47;;;;;;;22.82;72.10;101086.53;6170873;23;20318;-46
2022/08/17 01:37:43;;;;;;;56.58;36.05;;;;;;;22.99;71.89;101130.25;6170832;23;20516;-47
2022/08/17 01:40:17;;;;;;;59.40;35.13;;;;;;;23.01;72.47;101157.66;6157886;23;20017;-46
2022/08/17 01:42:50;;;;;;;;;;;;;;;23.05;72.17;101161.09;6127547;23;20082;-48
2022/08/17 01:45:21;;;;;;;56.55;33.92;;;;;;;22.90;72.60;101145.66;6159591;23;20348;-47
2022/08/17 01:47:49;;;;;;;59.08;35.85;;;;;;;23.01;72.05;101149.69;6173156;23;20009;-50
2022/08/17 01:50:19;;;;;;;54.63;35.60;;;;;;;22.96;72.64;101172.91;6144107;23;20573;-47
2022/08/17 01:52:47;;;;;;;46.72;30.02;;;;;;;22.73;72.33;101179.88;6155454;23;20016;-50
2022/08/17 01:55:16;;;;;;;39.78;25.95;;;;;;;22.82;70.96;101180.44;6152310;23;20017;-48
2022/08/17 01:57:44;;;;;;;37.40;25.55;;;;;;;22.80;70.12;101186.75;6158169;23;20341;-47
2022/08/17 02:00:10;;;;;;;36.22;25.15;;;;;;;22.69;69.73;101183.53;6174900;23;20009;-48
2022/08/17 02:02:36;;;;;;;33.25;23.33;;;;;;;22.59;69.70;101183.81;6157613;23;20327;-49
2022/08/17 02:05:03;;;;;;;36.30;23.70;;;;;;;22.43;70.32;101179.03;6142634;23;20774;-49
2022/08/17 02:07:29;;;;;;;33.80;21.63;;;;;;;22.39;69.95;101164.94;6166442;23;20445;-48
2022/08/17 02:09:55;;;;;;;34.38;21.73;;;;;;;22.39;70.25;101164.09;6133322;23;20869;-46
2022/08/17 02:12:21;;;;;;;39.10;21.02;;;;;;;22.21;71.10;101166.38;6169658;23;20340;-50
2022/08/17 02:14:47;;;;;;;35.90;19.42;;;;;;;22.24;71.46;101176.06;6151921;23;20530;-47
2022/08/17 02:17:12;;;;;;;37.92;19.20;;;;;;;22.36;71.20;101180.13;6172250;23;20489;-50
2022/08/17 02:19:41;;;;;;;31.05;15.82;;;;;;;22.36;71.06;101186.31;6163743;23;20078;-49
2022/08/17 02:22:06;;;;;;;29.77;16.75;;;;;;;22.46;71.33;101192.19;6174822;23;20023;-47
2022/08/17 02:24:36;;;;;;;38.78;19.15;;;;;;;22.42;70.65;101178.16;6156404;23;20005;-47
2022/08/17 02:27:02;;;;;;;38.88;21.25;;;;;;;22.17;71.96;101151.47;6167514;23;20027;-47
2022/08/17 02:29:28;;;;;;;35.33;21.67;;;;;;;22.01;72.28;101147.53;6139182;23;20039;-48
2022/08/17 02:31:53;;;;;;;36.17;22.35;;;;;;;21.95;72.42;101145.06;6163451;23;20084;-49
2022/08/17 02:34:18;;;;;;;34.78;23.40;;;;;;;21.97;73.38;101161.78;6163775;23;20017;-49
2022/08/17 02:36:44;;;;;;;35.45;22.40;;;;;;;21.61;73.73;101155.72;6162065;23;20013;-50
2022/08/17 02:39:11;;;;;;;33.08;21.88;;;;;;;21.70;73.59;101160.78;6166839;23;20020;-49
2022/08/17 02:41:37;;;;;;;30.83;20.95;;;;;;;21.76;74.29;101151.78;6165794;23;20009;-50
2022/08/17 02:44:05;;;;;;;20.40;14.77;;;;;;;21.55;73.82;101139.09;6169708;23;20012;-47
2022/08/17 02:46:34;;;;;;;21.25;14.07;;;;;;;21.33;74.58;101137.03;6159552;23;20044;-49
2022/08/17 02:48:59;;;;;;;16.42;11.30;;;;;;;21.43;73.98;101135.00;6136392;23;20027;-48
2022/08/17 02:51:25;;;;;;;15.25;10.00;;;;;;;21.31;74.16;101135.31;6171369;23;20403;-49
2022/08/17 02:53:51;;;;;;;16.02;10.20;;;;;;;21.23;73.97;101127.56;6168992;23;20008;-48
2022/08/17 02:56:21;;;;;;;11.52;8.90;;;;;;;21.37;73.09;101121.91;6173782;23;20415;-47
2022/08/17 02:58:47;;;;;;;10.02;7.47;;;;;;;21.21;72.97;101117.94;6129113;23;20616;-48
2022/08/17 03:01:12;;;;;;;9.65;7.30;;;;;;;21.32;72.45;101127.34;6142589;23;20028;-51
2022/08/17 03:03:45;;;;;;;10.77;7.10;;;;;;;20.93;72.58;101134.50;6171006;23;20091;-50
2022/08/17 03:06:10;;;;;;;10.55;7.57;;;;;;;21.00;72.69;101148.47;6142671;23;20008;-51
2022/08/17 03:08:39;;;;;;;9.57;7.20;;;;;;;21.16;72.67;101151.66;6159600;23;20444;-50
2022/08/17 03:11:04;;;;;;;9.07;7.38;;;;;;;21.47;72.35;101147.25;6165309;23;20040;-49
2022/08/17 03:13:33;;;;;;;9.98;7.20;;;;;;;21.51;71.88;101142.75;6164692;23;20036;-51
2022/08/17 03:15:58;;;;;;;9.00;7.20;;;;;;;21.51;71.00;101150.72;6149966;23;20072;-48
2022/08/17 03:18:26;;;;;;;11.10;7.60;;;;;;;21.58;71.48;101137.25;6169801;23;20058;-49
2022/08/17 03:20:53;;;;;;;9.73;8.10;;;;;;;21.56;71.59;101136.41;6159753;23;20009;-49
2022/08/17 03:23:19;;;;;;;14.13;9.00;;;;;;;21.34;72.40;101138.78;6169416;23;20064;-47
2022/08/17 03:25:45;;;;;;;13.23;9.55;;;;;;;21.42;72.78;101125.28;6170723;23;20537;-47
2022/08/17 03:28:11;;;;;;;11.57;9.35;;;;;;;21.60;72.44;101127.44;6158775;23;20079;-49
2022/08/17 03:30:37;;;;;;;13.50;10.07;;;;;;;21.74;72.35;101125.28;6163119;23;20071;-51
2022/08/17 03:33:28;;;;;;;13.25;9.98;;;;;;;21.54;72.70;101126.72;6166007;23;20023;-52
2022/08/17 03:35:54;;;;;;;13.60;9.98;;;;;;;21.52;72.64;101125.94;6156544;23;20008;-48
2022/08/17 03:38:20;;;;;;;12.98;10.32;;;;;;;21.60;72.79;101116.81;6142740;23;20464;-48
2022/08/17 03:40:47;;;;;;;14.40;9.63;;;;;;;21.68;72.38;101117.50;6160931;23;20456;-49
2022/08/17 03:43:14;;;;;;;13.10;10.10;;;;;;;21.67;72.71;101130.78;6168059;23;20023;-48
2022/08/17 03:56:56;;;;;;;15.25;10.60;;;;;;;21.50;73.73;101130.41;6147006;23;20403;-50
2022/08/17 03:59:22;;;;;;;16.90;10.27;;;;;;;21.66;73.25;101124.59;6140007;23;20013;-48
2022/08/17 04:01:51;;;;;;;15.10;11.05;;;;;;;21.68;73.36;101129.88;6167343;23;20152;-49
2022/08/17 04:04:18;;;;;;;17.92;12.25;;;;;;;21.63;73.11;101122.06;6168381;23;20394;-47
2022/08/17 04:06:44;;;;;;;20.05;12.68;;;;;;;21.74;73.11;101114.66;6139430;23;20418;-49
2022/08/17 04:09:11;;;;;;;21.42;13.88;;;;;;;21.69;73.65;101105.97;6165318;23;20020;-50
2022/08/17 04:11:37;;;;;;;22.63;14.38;;;;;;;21.67;73.68;101096.28;6169376;23;20040;-48
2022/08/17 04:14:03;;;;;;;24.23;15.07;;;;;;;21.64;74.01;101097.28;6136038;23;20054;-50
2022/08/17 04:16:30;;;;;;;28.92;16.83;;;;;;;21.65;74.44;101098.16;6167339;23;20341;-48
2022/08/17 04:18:55;;;;;;;27.33;17.60;;;;;;;21.72;74.51;101102.34;6163814;23;20017;-49
2022/08/17 04:21:21;;;;;;;26.80;17.25;;;;;;;21.86;73.76;101095.72;6173629;23;20005;-47
2022/08/17 04:23:46;;;;;;;32.35;18.55;;;;;;;21.83;74.15;101094.97;6170561;23;20329;-48
2022/08/17 04:26:13;;;;;;;29.15;18.10;;;;;;;21.76;74.87;101091.59;6133354;23;20400;-48
2022/08/17 04:28:40;;;;;;;26.83;16.92;;;;;;;22.04;73.65;101094.34;6138444;23;20024;-47
2022/08/17 04:31:08;;;;;;;27.80;18.58;;;;;;;21.97;73.80;101091.91;6158921;23;20006;-48
2022/08/17 04:33:33;;;;;;;31.65;18.77;;;;;;;21.89;74.42;101100.09;6168314;23;20368;-49
2022/08/17 04:36:01;;;;;;;31.30;19.25;;;;;;;21.85;74.52;101101.06;6169495;23;20004;-48
2022/08/17 04:38:32;;;;;;;30.80;19.67;;;;;;;21.78;74.90;101100.38;6162926;23;20013;-47
2022/08/17 04:43:45;;;;;;;31.95;19.55;;;;;;;21.82;74.54;101114.44;6162391;23;20175;-47
2022/08/17 04:46:17;;;;;;;27.77;18.23;;;;;;;21.94;73.67;101098.16;6172008;23;20016;-49
2022/08/17 04:48:46;;;;;;;28.83;17.95;;;;;;;21.66;74.41;101094.56;6125179;23;20062;-48
2022/08/17 04:51:18;;;;;;;26.08;17.60;;;;;;;21.81;73.77;101102.94;6172367;23;20048;-47
2022/08/17 04:53:46;;;;;;;27.33;18.42;;;;;;;21.57;74.32;101086.88;6142235;23;20771;-49
2022/08/17 04:56:14;;;;;;;27.48;18.17;;;;;;;21.70;74.20;101096.22;6140083;23;20527;-48
2022/08/17 04:58:44;;;;;;;27.02;18.23;;;;;;;21.77;73.91;101101.28;6129026;23;20097;-49
2022/08/17 05:01:09;;;;;;;24.90;18.05;;;;;;;21.67;73.80;101098.94;6170079;23;20017;-49
2022/08/17 05:03:35;;;;;;;27.92;18.10;;;;;;;21.83;73.46;101097.59;6175606;23;20446;-49
2022/08/17 05:06:01;;;;;;;27.65;17.52;;;;;;;21.87;73.36;101093.94;6160738;23;20079;-46
2022/08/17 05:08:36;;;;;;;29.95;19.13;;;;;;;21.89;73.17;101097.44;6165473;23;20020;-50
2022/08/17 05:11:01;;;;;;;28.77;18.85;;;;;;;21.94;73.25;101092.84;6170128;23;20005;-47
2022/08/17 05:13:37;;;;;;;26.42;18.17;;;;;;;21.92;72.70;101097.31;6138819;23;20062;-50
2022/08/17 05:16:03;;;;;;;29.85;18.75;;;;;;;22.08;72.68;101100.44;6146817;23;20017;-49
2022/08/17 05:18:30;;;;;;;25.48;18.40;;;;;;;22.10;72.48;101095.94;6166510;23;20036;-48
2022/08/17 05:20:55;;;;;;;24.98;18.15;;;;;;;22.07;72.62;101091.59;6169843;23;20023;-49
2022/08/17 05:23:24;;;;;;;26.25;18.65;;;;;;;22.09;72.93;101091.53;6162978;23;20012;-49
2022/08/17 05:25:51;;;;;;;26.55;18.85;;;;;;;22.01;73.04;101090.91;6171184;23;20011;-49
2022/08/17 05:28:19;;;;;;;27.23;19.13;;;;;;;21.95;73.52;101091.97;6164618;23;20356;-47
2022/08/17 05:30:45;;;;;;;24.45;18.40;;;;;;;22.04;72.91;101098.78;6161634;23;20018;-48
2022/08/17 05:33:23;;;;;;;24.83;17.95;;;;;;;21.85;73.88;101101.06;6169560;23;20400;-48
2022/08/17 05:35:51;;;;;;;27.23;17.73;;;;;;;21.83;74.02;101098.44;6145511;23;20024;-49
2022/08/17 05:38:18;;;;;;;23.95;17.40;;;;;;;21.96;73.31;101106.09;6165082;23;20016;-49
2022/08/17 05:40:45;;;;;;;25.42;18.23;;;;;;;21.84;73.70;101109.94;6157223;23;20019;-46
2022/08/17 05:43:19;;;;;;;25.95;17.92;;;;;;;21.76;74.34;101109.31;6168940;23;20822;-47
2022/08/17 05:46:02;;;;;;;28.13;19.40;;;;;;;21.82;74.32;101110.00;6160958;23;20019;-48
2022/08/17 05:48:35;;;;;;;28.25;19.17;;;;;;;22.00;73.61;101121.91;6164730;23;20008;-48
2022/08/17 05:51:28;;;;;;;29.05;19.00;;;;;;;22.18;73.47;101121.34;6168438;23;20004;-47
2022/08/17 05:54:08;;;;;;;27.15;18.40;;;;;;;22.28;73.12;101129.88;6160533;23;20013;-47
2022/08/17 05:56:50;;;;;;;27.73;19.40;;;;;;;22.33;73.14;101141.22;6136301;23;20544;-47
2022/08/17 05:59:48;;;;;;;29.65;19.50;;;;;;;22.42;72.84;101148.06;6165516;23;20012;-47
2022/08/17 06:02:54;;;;;;;29.02;19.10;;;;;;;22.35;73.46;101147.38;6165768;23;20005;-50
2022/08/17 06:05:24;;;;;;;28.67;19.33;;;;;;;22.41;73.26;101144.53;6038609;23;20030;-45
2022/08/17 06:08:01;;;;;;;27.17;19.00;;;;;;;22.32;73.29;101143.97;6152132;23;20790;-46
2022/08/17 06:10:39;;;;;;;25.73;17.73;;;;;;;22.32;73.43;101149.28;6165731;23;20009;-46
2022/08/17 06:13:18;;;;;;;27.92;18.40;;;;;;;22.41;72.72;101141.88;6169616;23;20009;-47
2022/08/17 06:16:07;;;;;;;27.90;18.80;;;;;;;22.43;72.71;101139.19;6147009;23;20016;-50
2022/08/17 06:18:52;;;;;;;29.90;19.05;;;;;;;22.49;73.20;101144.31;6129299;23;20024;-47
2022/08/17 06:21:19;;;;;;;28.60;18.35;;;;;;;22.38;73.45;101134.03;6149212;23;20013;-48
2022/08/17 06:24:05;;;;;;;27.92;19.38;;;;;;;22.57;73.52;101142.25;6162830;23;20515;-49
2022/08/17 06:26:36;;;;;;;29.15;19.73;;;;;;;22.59;72.90;101148.41;6130562;23;20017;-53
2022/08/17 06:29:36;;;;;;;29.15;19.90;;;;;;;22.57;73.12;101147.56;6135767;23;20393;-46
2022/08/17 06:32:13;;;;;;;29.17;19.40;;;;;;;22.94;72.19;101139.31;6148237;23;20019;-48
2022/08/17 06:34:45;;;;;;;26.42;18.52;;;;;;;23.04;71.54;101140.75;6160993;23;20047;-47
2022/08/17 06:37:21;;;;;;;25.33;18.90;;;;;;;22.92;72.33;101144.69;6160536;23;20143;-50
2022/08/17 06:40:37;;;;;;;23.75;17.00;;;;;;;23.08;72.35;101137.06;6168915;23;20008;-46
2022/08/17 06:43:21;;;;;;;22.20;17.23;;;;;;;23.22;70.98;101142.78;6157870;23;20055;-49
2022/08/17 06:45:57;;;;;;;20.48;16.30;;;;;;;23.44;71.37;101134.91;6143594;23;20005;-50
2022/08/17 06:49:07;;;;;;;20.60;16.20;;;;;;;23.25;71.40;101147.09;6171050;23;20082;-48
2022/08/17 06:51:49;;;;;;;22.67;15.77;;;;;;;23.59;71.15;101145.06;6162952;23;20004;-51
2022/08/17 06:54:26;;;;;;;20.60;14.85;;;;;;;23.48;69.33;101147.22;6125459;23;20004;-50
2022/08/17 06:57:17;;;;;;;21.95;15.30;;;;;;;23.58;69.84;101150.41;6161498;23;20044;-51
2022/08/17 06:59:48;;;;;;;19.27;15.00;;;;;;;23.67;70.20;101158.94;6168859;23;20019;-49
2022/08/17 07:02:21;;;;;;;18.10;14.27;;;;;;;23.29;69.24;101154.09;6167124;23;20032;-53
2022/08/17 07:04:51;;;;;;;17.80;14.23;;;;;;;23.12;69.98;101161.75;6112101;23;20526;-49
2022/08/17 07:10:07;;;;;;;17.73;13.90;;;;;;;23.30;70.21;101163.78;6170468;23;20359;-48
2022/08/17 07:12:38;;;;;;;19.63;14.43;;;;;;;23.06;71.17;101165.47;6149382;23;20027;-49
2022/08/17 07:15:34;;;;;;;18.52;13.63;;;;;;;22.71;72.05;101169.28;6151500;23;20012;-49
2022/08/17 07:18:02;;;;;;;18.23;13.43;;;;;;;23.01;71.01;101170.09;6138467;23;20020;-49
2022/08/17 07:20:32;;;;;;;17.23;13.65;;;;;;;23.00;71.22;101176.31;6160285;23;20075;-50
2022/08/17 07:23:05;;;;;;;16.88;13.20;;;;;;;23.05;70.25;101182.38;6133087;23;20070;-50
2022/08/17 07:25:31;;;;;;;19.00;14.02;;;;;;;22.95;71.04;101183.59;6157846;23;20062;-50
2022/08/17 07:27:59;;;;;;;19.58;14.20;;;;;;;22.54;72.96;101192.84;6159351;23;20933;-51
2022/08/17 07:30:43;;;;;;;17.15;12.80;;;;;;;22.86;71.46;101189.22;6167704;23;20051;-51
2022/08/17 07:33:10;;;;;;;18.88;13.95;;;;;;;22.76;71.75;101196.59;6162994;23;20437;-48
2022/08/17 07:35:43;;;;;;;17.52;13.20;;;;;;;22.69;72.16;101204.81;6158401;23;20106;-52
2022/08/17 07:38:15;;;;;;;19.17;13.20;;;;;;;22.82;71.92;101206.16;6161513;23;20019;-49
2022/08/17 07:40:46;;;;;;;16.48;12.43;;;;;;;22.90;71.05;101205.00;6155751;23;20023;-48
2022/08/17 07:43:17;;;;;;;15.77;12.38;;;;;;;22.95;72.10;101208.38;6143952;23;20099;-51
2022/08/17 07:48:48;;;;;;;17.40;12.55;;;;;;;22.86;72.93;101213.16;6161177;23;20539;-50
2022/08/17 07:51:27;;;;;;;18.90;13.05;;;;;;;23.03;72.50;101201.03;6161930;23;20139;-47
2022/08/17 07:53:59;;;;;;;15.95;12.27;;;;;;;23.13;72.16;101190.94;6161419;23;20484;-49
2022/08/17 07:56:36;;;;;;;17.17;12.40;;;;;;;23.07;72.12;101188.50;6166677;23;20012;-50
2022/08/17 07:59:12;;;;;;;16.40;12.48;;;;;;;23.15;71.75;101178.47;6158748;23;20759;-48
2022/08/17 08:01:44;;;;;;;17.15;11.88;;;;;;;23.25;71.79;101184.34;6166666;23;20013;-50
2022/08/17 08:04:39;;;;;;;15.60;12.07;;;;;;;23.28;71.92;101200.22;6162604;23;20021;-52
2022/08/17 08:07:33;;;;;;;14.73;12.10;;;;;;;23.25;71.01;101193.19;6165357;23;20382;-48
2022/08/17 08:10:15;;;;;;;15.50;11.55;;;;;;;23.31;71.07;101197.44;6159659;23;20023;-47
2022/08/17 08:13:04;;;;;;;16.63;12.55;;;;;;;22.86;73.02;101200.72;6152795;23;20005;-47
2022/08/17 08:15:50;;;;;;;15.80;11.32;;;;;;;23.19;73.04;101198.72;6160897;23;20020;-47
2022/08/17 08:18:39;;;;;;;14.90;11.07;;;;;;;23.51;71.39;101188.81;6125435;23;20020;-47
2022/08/17 08:21:29;;;;;;;14.13;11.07;;;;;;;23.80;70.77;101193.97;6162352;23;20028;-47
2022/08/17 08:24:00;;;;;;;14.05;10.98;;;;;;;24.17;71.20;101202.34;6166435;23;20070;-49
2022/08/17 08:26:39;;;;;;;12.48;10.23;;;;;;;;;;6168169;23;20515;-47
2022/08/17 08:29:39;;;;;;;12.35;9.98;;;;;;;23.98;69.92;101221.72;6167364;23;20016;-47
2022/08/17 08:32:46;;;;;;;15.40;10.13;;;;;;;24.26;69.77;101225.16;6165422;23;20016;-49
2022/08/17 08:35:30;;;;;;;13.93;11.00;;;;;;;23.55;69.54;101222.38;6169203;23;20079;-48
2022/08/17 08:38:06;;;;;;;13.43;10.27;;;;;;;24.10;69.09;101222.13;6139558;23;20091;-49
2022/08/17 08:40:56;;;;;;;13.60;10.77;;;;;;;24.28;67.94;101225.94;6156132;23;20016;-49
2022/08/17 08:44:00;;;;;;;12.20;10.32;;;;;;;24.55;67.78;101232.03;6163446;23;20016;-51
2022/08/17 08:46:43;;;;;;;;;;;;;;;24.24;67.10;101240.31;6162550;23;20017;-49
2022/08/17 08:49:38;;;;;;;11.52;10.30;;;;;;;24.32;66.37;101226.72;6136353;23;19904;-49
2022/08/17 08:52:20;;;;;;;12.55;10.18;;;;;;;24.17;65.42;101228.97;6128868;23;20356;-49
2022/08/17 08:55:04;;;;;;;11.18;9.55;;;;;;;23.68;67.06;101229.88;6156502;23;20012;-48
2022/08/17 08:57:32;;;;;;;11.32;10.13;;;;;;;23.77;67.55;101236.69;6157115;23;20165;-52
2022/08/17 09:00:13;;;;;;;13.20;10.43;;;;;;;23.28;68.11;101243.66;6166225;23;20072;-50
2022/08/17 09:03:20;;;;;;;12.23;10.07;;;;;;;23.60;68.14;101260.38;6161253;23;20058;-49
2022/08/17 09:06:33;;;;;;;12.05;9.98;;;;;;;23.74;68.03;101280.25;6164524;23;20508;-48
2022/08/17 09:09:13;;;;;;;14.07;10.15;;;;;;;23.65;68.81;101290.34;6164096;23;20031;-48
2022/08/17 09:11:42;;;;;;;14.52;9.52;;;;;;;23.53;70.07;101290.78;6163463;23;20036;-46
2022/08/17 09:14:17;;;;;;;17.65;11.30;;;;;;;23.45;70.62;101291.00;6169771;23;20098;-50
2022/08/17 09:17:07;;;;;;;22.30;11.85;;;;;;;23.35;72.16;101294.88;6143982;23;20023;-47
2022/08/17 09:19:56;;;;;;;17.45;10.90;;;;;;;23.30;72.58;101304.78;6163611;23;20113;-47
2022/08/17 09:22:41;;;;;;;17.08;11.18;;;;;;;23.19;72.73;101305.13;6144609;23;20464;-46
2022/08/17 09:25:20;;;;;;;14.05;10.32;;;;;;;23.22;72.62;101302.38;6112126;23;20013;-47
2022/08/17 09:28:02;;;;;;;14.40;10.93;;;;;;;23.28;73.40;101288.03;6137744;23;20035;-47
2022/08/17 09:30:42;;;;;;;15.18;10.18;;;;;;;23.00;72.60;101278.25;6147845;23;20539;-46
2022/08/17 09:33:10;;;;;;;14.50;11.00;;;;;;;23.34;72.40;101279.84;6136436;23;20166;-46
2022/08/17 09:35:43;;;;;;;15.75;11.40;;;;;;;23.41;72.95;101294.69;6168481;23;20377;-48
2022/08/17 09:38:33;;;;;;;15.65;11.07;;;;;;;23.42;73.15;101304.41;6162092;23;20087;-47
2022/08/17 09:41:10;;;;;;;12.00;9.75;;;;;;;23.48;71.81;101306.03;6150774;23;20398;-50
2022/08/17 09:43:53;;;;;;;13.18;9.85;;;;;;;23.51;71.99;101305.91;6156609;23;20005;-49
2022/08/17 09:46:32;;;;;;;13.45;10.13;;;;;;;23.55;72.24;101300.44;6168992;23;20004;-49
2022/08/17 09:49:59;;;;;;;14.00;10.63;;;;;;;23.60;72.01;101306.50;6127002;23;20647;-48
2022/08/17 09:52:30;;;;;;;13.93;10.70;;;;;;;23.75;71.89;101305.09;5998416;23;20021;-48
2022/08/17 09:54:58;;;;;;;14.38;10.63;;;;;;;23.78;72.14;101297.88;6140925;23;20063;-47
2022/08/17 09:57:42;;;;;;;15.13;10.88;;;;;;;23.81;71.78;101296.88;6165894;23;20040;-47
2022/08/17 10:00:26;;;;;;;12.80;10.70;;;;;;;23.85;71.71;101295.84;6161713;23;20013;-46
2022/08/17 10:02:54;;;;;;;13.90;10.25;;;;;;;23.91;71.43;101287.66;6129864;23;20016;-48
2022/08/17 10:05:45;;;;;;;15.02;11.07;;;;;;;23.91;71.01;101295.63;6162470;23;20094;-45
2022/08/17 10:08:51;;;;;;;14.63;10.70;;;;;;;23.86;70.94;101293.13;6166810;23;20011;-47
2022/08/17 10:14:35;;;;;;;13.00;10.68;;;;;;;23.42;69.71;101294.59;6143649;23;20022;-49
2022/08/17 10:17:43;;;;;;;12.70;10.60;;;;;;;23.20;69.52;101293.56;6171567;23;20020;-47
2022/08/17 10:20:19;;;;;;;13.15;11.15;;;;;;;23.39;70.03;101293.84;6140292;23;20122;-48
2022/08/17 10:28:43;;;;;;;12.02;10.45;;;;;;;24.04;67.35;101288.09;6160052;23;20122;-47
2022/08/17 10:31:11;;;;;;;12.02;10.00;;;;;;;24.15;67.49;101286.78;6140682;23;20039;-47
2022/08/17 10:34:15;;;;;;;11.25;9.80;;;;;;;24.23;66.86;101287.41;6162053;23;20628;-48
2022/08/17 10:36:42;;;;;;;10.65;9.55;;;;;;;24.54;66.07;101288.94;6137772;23;20017;-46
2022/08/17 10:39:31;;;;;;;10.95;9.38;;;;;;;24.57;65.54;101287.03;6159939;23;20027;-49
2022/08/17 10:42:02;;;;;;;10.35;9.25;;;;;;;24.06;66.58;101287.13;6139176;23;20031;-46
2022/08/17 10:44:34;;;;;;;11.27;9.68;;;;;;;24.24;66.02;101281.16;6123772;23;20632;-47
2022/08/17 10:47:15;;;;;;;11.80;9.95;;;;;;;23.90;67.00;101277.06;6141867;23;20071;-46
2022/08/17 10:49:52;;;;;;;13.05;10.70;;;;;;;24.07;67.71;101274.66;6167795;23;20387;-57
2022/08/17 10:52:21;;;;;;;10.65;9.55;;;;;;;24.34;66.66;101276.34;6166332;23;20019;-48
2022/08/17 10:55:12;;;;;;;12.40;10.60;;;;;;;23.77;67.60;101268.63;6159699;23;20664;-48
2022/08/17 10:57:43;;;;;;;12.55;9.90;;;;;;;23.51;66.99;101263.34;6170482;23;20013;-50
2022/08/17 11:00:20;;;;;;;12.30;10.10;;;;;;;23.84;67.37;101248.88;6164948;23;20058;-54
2022/08/17 11:02:50;;;;;;;12.93;10.35;;;;;;;23.76;67.44;101249.13;6134125;23;20055;-49
2022/08/17 11:05:57;;;;;;;14.02;10.48;;;;;;;23.74;68.24;101250.97;6136281;23;20044;-47
2022/08/17 11:09:07;;;;;;;14.32;10.85;;;;;;;24.08;67.04;101255.09;6135240;23;20104;-46
2022/08/17 11:12:05;;;;;;;14.32;11.48;;;;;;;23.64;67.21;101254.88;6041737;23;20018;-48
2022/08/17 11:14:54;;;;;;;14.25;11.70;;;;;;;23.72;67.96;101255.50;6039186;23;20021;-50
2022/08/17 11:18:06;;;;;;;13.88;10.80;;;;;;;24.29;66.47;101264.13;6038134;23;20018;-47
2022/08/17 11:20:44;;;;;;;16.67;12.30;;;;;;;24.08;66.77;101271.09;6117325;23;20068;-47
2022/08/17 11:23:28;;;;;;;15.18;11.73;;;;;;;24.08;66.62;101279.06;6159559;23;20621;-47
2022/08/17 11:25:55;;;;;;;;;;;;;;;24.02;67.52;101279.31;6109583;23;20452;-50
2022/08/17 11:28:27;;;;;;;16.52;12.80;;;;;;;24.09;66.57;101279.00;6157669;23;19915;-52
2022/08/17 11:31:02;;;;;;;15.20;12.38;;;;;;;24.34;66.83;101291.47;6125171;23;20096;-52
2022/08/17 11:33:27;;;;;;;16.85;12.60;;;;;;;24.70;65.17;101292.78;6169915;23;20000;-48
2022/08/17 11:36:11;;;;;;;18.77;13.73;;;;;;;24.00;67.14;101295.31;6168315;23;20349;-48
2022/08/17 11:39:04;;;;;;;17.15;13.65;;;;;;;24.13;67.28;101307.28;6151384;23;20020;-48
2022/08/17 11:41:38;;;;;;;19.08;14.13;;;;;;;23.83;67.94;101308.38;6114616;23;20032;-47
2022/08/17 11:44:19;;;;;;;20.20;15.27;;;;;;;23.56;69.15;101312.81;6136175;23;20016;-47
2022/08/17 11:52:42;;;;;;;18.95;14.90;;;;;;;23.96;69.12;101323.00;6162525;23;21030;-49
2022/08/17 11:55:31;;;;;;;17.52;14.20;;;;;;;24.22;69.29;101319.41;6141661;23;20024;-49
2022/08/17 11:58:24;;;;;;;19.27;15.02;;;;;;;24.05;68.63;101317.34;6144966;23;20054;-50
2022/08/17 12:00:55;;;;;;;19.20;15.38;;;;;;;23.86;69.41;101313.56;6131845;23;20541;-52
2022/08/17 12:03:32;;;;;;;18.17;14.23;;;;;;;24.13;68.46;101315.28;6168536;23;20285;-50
2022/08/17 12:06:26;;;;;;;18.67;14.73;;;;;;;23.96;69.20;101309.69;6130699;23;20013;-49
2022/08/17 12:09:15;;;;;;;19.63;14.52;;;;;;;24.07;69.49;101302.19;6159623;23;20019;-48
2022/08/17 12:11:45;;;;;;;21.30;14.48;;;;;;;23.88;69.27;101306.41;6136058;23;20103;-48
2022/08/17 12:14:15;;;;;;;18.67;14.80;;;;;;;23.56;70.86;101298.63;6163085;23;20253;-52
2022/08/17 12:16:42;;;;;;;18.88;14.93;;;;;;;23.75;69.88;101297.97;6132982;23;20016;-48
2022/08/17 12:19:19;;;;;;;19.13;14.20;;;;;;;24.01;69.86;101298.88;6164471;23;20036;-49
2022/08/17 12:22:46;;;;;;;19.27;14.60;;;;;;;23.89;69.63;101296.63;6140412;23;20028;-52
2022/08/17 12:25:39;;;;;;;18.88;15.20;;;;;;;23.62;70.72;101295.78;6161982;23;20035;-49